Observation data for Lamesa on 05/24/2020      Previous  Date  Next       Current Mesonet Observations  Soil Data  Daily Summary Page  Observations in Plain Language
KLES 240500Z 11011KT 19/13 A2988 RMK A01 T01910130  RH  070%=      5-min Rain = 0
KLES 240505Z 11011KT 19/13 A2987 RMK A01 T01920128  RH  069%=      5-min Rain = 0
KLES 240510Z 11011G16KT 19/13 A2987 RMK A01 T01920128  RH  069%=      5-min Rain = 0
KLES 240515Z 11011KT 19/13 A2987 RMK A01 T01920127  RH  069%=      5-min Rain = 0
KLES 240520Z 11012G18KT 19/13 A2987 RMK A01 T01910126  RH  069%=      5-min Rain = 0
KLES 240525Z 11011G16KT 19/13 A2987 RMK A01 T01900125  RH  068%=      5-min Rain = 0
KLES 240530Z 11012KT 19/12 A2988 RMK A01 T01900124  RH  068%=      5-min Rain = 0
KLES 240535Z 11014G20KT 19/12 A2988 RMK A01 T01890122  RH  067%=      5-min Rain = 0
KLES 240540Z 11012G17KT 19/12 A2988 RMK A01 T01890121  RH  067%=      5-min Rain = 0
KLES 240545Z 11012G17KT 19/12 A2989 RMK A01 T01880121  RH  067%=      5-min Rain = 0
KLES 240550Z 12010G16KT 19/12 A2989 RMK A01 T01870120  RH  067%=      5-min Rain = 0
KLES 240555Z 12009KT 19/12 A2989 RMK A01 T01860120  RH  068%=      5-min Rain = 0
KLES 240600Z 12009KT 19/12 A2989 RMK A01 T01850120  RH  068%=      5-min Rain = 0
KLES 240605Z 11008KT 18/12 A2989 RMK A01 T01840119  RH  068%=      5-min Rain = 0
KLES 240610Z 11010KT 18/12 A2988 RMK A01 T01840119  RH  068%=      5-min Rain = 0
KLES 240615Z 11009KT 18/12 A2988 RMK A01 T01840118  RH  068%=      5-min Rain = 0
KLES 240620Z 11010KT 18/12 A2988 RMK A01 T01830117  RH  068%=      5-min Rain = 0
KLES 240625Z 11010KT 18/12 A2988 RMK A01 T01830116  RH  068%=      5-min Rain = 0
KLES 240630Z 11009KT 18/12 A2988 RMK A01 T01830116  RH  067%=      5-min Rain = 0
KLES 240635Z 11009KT 18/12 A2987 RMK A01 T01830116  RH  067%=      5-min Rain = 0
KLES 240640Z 12009KT 18/12 A2987 RMK A01 T01840115  RH  067%=      5-min Rain = 0
KLES 240645Z 12009KT 18/12 A2987 RMK A01 T01840115  RH  067%=      5-min Rain = 0
KLES 240650Z 12008KT 18/12 A2987 RMK A01 T01830115  RH  067%=      5-min Rain = 0
KLES 240655Z 13008KT 18/12 A2987 RMK A01 T01820115  RH  067%=      5-min Rain = 0
KLES 240700Z 15007KT 18/12 A2987 RMK A01 T01790115  RH  069%=      5-min Rain = 0
KLES 240705Z 13007KT 18/12 A2987 RMK A01 T01780116  RH  069%=      5-min Rain = 0
KLES 240710Z 11008KT 18/12 A2987 RMK A01 T01790116  RH  069%=      5-min Rain = 0
KLES 240715Z 11007KT 18/12 A2987 RMK A01 T01780115  RH  069%=      5-min Rain = 0
KLES 240720Z 12007KT 18/12 A2987 RMK A01 T01770115  RH  069%=      5-min Rain = 0
KLES 240725Z 12006KT 18/12 A2987 RMK A01 T01770115  RH  070%=      5-min Rain = 0
KLES 240730Z 11007KT 18/12 A2987 RMK A01 T01760115  RH  070%=      5-min Rain = 0
KLES 240735Z 11007KT 18/12 A2986 RMK A01 T01770115  RH  070%=      5-min Rain = 0
KLES 240740Z 11007KT 18/12 A2986 RMK A01 T01770115  RH  070%=      5-min Rain = 0
KLES 240745Z 11007KT 18/12 A2986 RMK A01 T01770116  RH  070%=      5-min Rain = 0
KLES 240750Z 11007KT 18/12 A2986 RMK A01 T01760116  RH  070%=      5-min Rain = 0
KLES 240755Z 12007KT 18/12 A2986 RMK A01 T01760116  RH  070%=      5-min Rain = 0
KLES 240800Z 12006KT 18/12 A2986 RMK A01 T01750116  RH  071%=      5-min Rain = 0
KLES 240805Z 12006KT 17/12 A2986 RMK A01 T01740116  RH  071%=      5-min Rain = 0
KLES 240810Z 12006KT 17/12 A2986 RMK A01 T01730116  RH  072%=      5-min Rain = 0
KLES 240815Z 12005KT 17/12 A2986 RMK A01 T01720116  RH  072%=      5-min Rain = 0
KLES 240820Z 12004KT 17/12 A2987 RMK A01 T01700116  RH  073%=      5-min Rain = 0
KLES 240825Z 12004KT 17/12 A2986 RMK A01 T01700116  RH  073%=      5-min Rain = 0
KLES 240830Z 12004KT 17/12 A2986 RMK A01 T01700116  RH  073%=      5-min Rain = 0
KLES 240835Z 12004KT 17/12 A2986 RMK A01 T01690116  RH  074%=      5-min Rain = 0
KLES 240840Z 12004KT 17/12 A2986 RMK A01 T01680116  RH  074%=      5-min Rain = 0
KLES 240845Z 12005KT 17/12 A2986 RMK A01 T01680116  RH  074%=      5-min Rain = 0
KLES 240850Z 12005KT 17/12 A2986 RMK A01 T01670116  RH  075%=      5-min Rain = 0
KLES 240855Z 12006KT 17/12 A2986 RMK A01 T01660116  RH  075%=      5-min Rain = 0
KLES 240900Z 12006KT 17/12 A2986 RMK A01 T01660116  RH  075%=      5-min Rain = 0
KLES 240905Z 12007KT 17/12 A2986 RMK A01 T01650117  RH  076%=      5-min Rain = 0
KLES 240910Z 12007KT 17/12 A2986 RMK A01 T01650117  RH  076%=      5-min Rain = 0
KLES 240915Z 12007KT 17/12 A2986 RMK A01 T01660118  RH  076%=      5-min Rain = 0
KLES 240920Z 12007KT 17/12 A2986 RMK A01 T01690119  RH  075%=      5-min Rain = 0
KLES 240925Z 14008KT 17/12 A2986 RMK A01 T01720119  RH  074%=      5-min Rain = 0
KLES 240930Z 14009KT 18/12 A2986 RMK A01 T01780120  RH  071%=      5-min Rain = 0
KLES 240935Z 13008KT 18/12 A2986 RMK A01 T01810119  RH  070%=      5-min Rain = 0
KLES 240940Z 13007KT 18/12 A2986 RMK A01 T01790119  RH  070%=      5-min Rain = 0
KLES 240945Z 13006KT 18/12 A2986 RMK A01 T01770118  RH  071%=      5-min Rain = 0
KLES 240950Z 13006KT 18/12 A2986 RMK A01 T01750118  RH  072%=      5-min Rain = 0
KLES 240955Z 13006KT 17/12 A2986 RMK A01 T01740118  RH  072%=      5-min Rain = 0
KLES 241000Z 13006KT 17/12 A2986 RMK A01 T01730118  RH  073%=      5-min Rain = 0
KLES 241005Z 13006KT 17/12 A2987 RMK A01 T01720118  RH  073%=      5-min Rain = 0
KLES 241010Z 13006KT 17/12 A2987 RMK A01 T01700118  RH  074%=      5-min Rain = 0
KLES 241015Z 13006KT 17/12 A2986 RMK A01 T01680118  RH  075%=      5-min Rain = 0
KLES 241020Z 12005KT 17/12 A2986 RMK A01 T01670117  RH  075%=      5-min Rain = 0
KLES 241025Z 12006KT 17/12 A2986 RMK A01 T01650117  RH  076%=      5-min Rain = 0
KLES 241030Z 12005KT 16/12 A2986 RMK A01 T01640117  RH  076%=      5-min Rain = 0
KLES 241035Z 12007KT 16/12 A2986 RMK A01 T01630117  RH  077%=      5-min Rain = 0
KLES 241040Z 13008KT 16/12 A2986 RMK A01 T01640117  RH  077%=      5-min Rain = 0
KLES 241045Z 13008KT 17/12 A2985 RMK A01 T01650116  RH  076%=      5-min Rain = 0
KLES 241050Z 14009KT 17/12 A2985 RMK A01 T01680117  RH  075%=      5-min Rain = 0
KLES 241055Z 14009KT 17/12 A2985 RMK A01 T01720117  RH  072%=      5-min Rain = 0
KLES 241100Z 15009KT 17/12 A2985 RMK A01 T01740116  RH  071%=      5-min Rain = 0
KLES 241105Z 15009KT 18/12 A2985 RMK A01 T01750116  RH  071%=      5-min Rain = 0
KLES 241110Z 14009KT 18/12 A2986 RMK A01 T01750116  RH  071%=      5-min Rain = 0
KLES 241115Z 15009KT 18/12 A2986 RMK A01 T01750116  RH  071%=      5-min Rain = 0
KLES 241120Z 15008KT 17/12 A2986 RMK A01 T01740116  RH  071%=      5-min Rain = 0
KLES 241125Z 14008KT 17/12 A2985 RMK A01 T01730116  RH  071%=      5-min Rain = 0
KLES 241130Z 14007KT 17/12 A2985 RMK A01 T01720115  RH  072%=      5-min Rain = 0
KLES 241135Z 15007KT 17/12 A2986 RMK A01 T01720115  RH  072%=      5-min Rain = 0
KLES 241140Z 15007KT 17/12 A2986 RMK A01 T01720115  RH  072%=      5-min Rain = 0
KLES 241145Z 16007KT 17/12 A2986 RMK A01 T01720115  RH  072%=      5-min Rain = 0
KLES 241150Z 16007KT 17/11 A2986 RMK A01 T01710114  RH  072%=      5-min Rain = 0
KLES 241155Z 15007KT 17/12 A2986 RMK A01 T01710115  RH  072%=      5-min Rain = 0
KLES 241200Z 16008KT 17/12 A2986 RMK A01 T01710115  RH  072%=      5-min Rain = 0
KLES 241205Z 16008KT 17/12 A2986 RMK A01 T01720116  RH  072%=      5-min Rain = 0
KLES 241210Z 16009KT 17/12 A2986 RMK A01 T01740116  RH  071%=      5-min Rain = 0
KLES 241215Z 16008KT 18/12 A2986 RMK A01 T01750116  RH  071%=      5-min Rain = 0
KLES 241220Z 16009KT 18/12 A2986 RMK A01 T01760117  RH  071%=      5-min Rain = 0
KLES 241225Z 15010KT 18/12 A2986 RMK A01 T01780118  RH  070%=      5-min Rain = 0
KLES 241230Z 16010KT 18/12 A2986 RMK A01 T01800118  RH  070%=      5-min Rain = 0
KLES 241235Z 16010KT 18/12 A2986 RMK A01 T01810119  RH  070%=      5-min Rain = 0
KLES 241240Z 16010KT 18/12 A2986 RMK A01 T01820119  RH  069%=      5-min Rain = 0
KLES 241245Z 16010KT 18/12 A2986 RMK A01 T01840120  RH  069%=      5-min Rain = 0
KLES 241250Z 16010KT 19/12 A2986 RMK A01 T01850121  RH  069%=      5-min Rain = 0
KLES 241255Z 16010KT 19/12 A2986 RMK A01 T01860122  RH  069%=      5-min Rain = 0
KLES 241300Z 16009G15KT 19/12 A2986 RMK A01 T01880124  RH  069%=      5-min Rain = 0
KLES 241305Z 17009KT 19/13 A2986 RMK A01 T01900126  RH  069%=      5-min Rain = 0
KLES 241310Z 16009KT 19/13 A2986 RMK A01 T01930127  RH  068%=      5-min Rain = 0
KLES 241315Z 16010G15KT 20/13 A2986 RMK A01 T01950129  RH  068%=      5-min Rain = 0
KLES 241320Z 15011KT 19/13 A2986 RMK A01 T01940130  RH  069%=      5-min Rain = 0
KLES 241325Z 14010KT 19/13 A2986 RMK A01 T01930131  RH  070%=      5-min Rain = 0
KLES 241330Z 14012G17KT 19/13 A2986 RMK A01 T01930132  RH  070%=      5-min Rain = 0
KLES 241335Z 14012KT 19/13 A2986 RMK A01 T01940131  RH  070%=      5-min Rain = 0
KLES 241340Z 14011G16KT 19/13 A2986 RMK A01 T01940131  RH  070%=      5-min Rain = 0
KLES 241345Z 14010KT 20/14 A2986 RMK A01 T01970135  RH  070%=      5-min Rain = 0
KLES 241350Z 15011KT 20/14 A2986 RMK A01 T02040137  RH  068%=      5-min Rain = 0
KLES 241355Z 16012KT 21/14 A2986 RMK A01 T02070138  RH  067%=      5-min Rain = 0
KLES 241400Z 16012G17KT 21/14 A2986 RMK A01 T02090140  RH  068%=      5-min Rain = 0
KLES 241405Z 17014KT 21/15 A2986 RMK A01 T02130145  RH  068%=      5-min Rain = 0
KLES 241410Z 17015G23KT 22/15 A2986 RMK A01 T02170151  RH  069%=      5-min Rain = 0
KLES 241415Z 17019G25KT 22/16 A2986 RMK A01 T02180155  RH  070%=      5-min Rain = 0
KLES 241420Z 18017G22KT 22/16 A2986 RMK A01 T02190156  RH  071%=      5-min Rain = 0
KLES 241425Z 17014G21KT 22/16 A2986 RMK A01 T02230157  RH  070%=      5-min Rain = 0
KLES 241430Z 18018G23KT 23/16 A2986 RMK A01 T02250157  RH  069%=      5-min Rain = 0
KLES 241435Z 18017G22KT 22/16 A2986 RMK A01 T02240157  RH  069%=      5-min Rain = 0
KLES 241440Z 17018G25KT 23/16 A2986 RMK A01 T02270158  RH  068%=      5-min Rain = 0
KLES 241445Z 18017G22KT 23/16 A2986 RMK A01 T02320160  RH  067%=      5-min Rain = 0
KLES 241450Z 18017KT 23/16 A2986 RMK A01 T02330159  RH  066%=      5-min Rain = 0
KLES 241455Z 18017G22KT 24/16 A2986 RMK A01 T02350161  RH  066%=      5-min Rain = 0
KLES 241500Z 18017G24KT 24/16 A2986 RMK A01 T02370160  RH  065%=      5-min Rain = 0
KLES 241505Z 20017G23KT 24/16 A2986 RMK A01 T02360160  RH  065%=      5-min Rain = 0
KLES 241510Z 18015G21KT 24/16 A2986 RMK A01 T02400160  RH  064%=      5-min Rain = 0
KLES 241515Z 18014G20KT 24/16 A2986 RMK A01 T02430160  RH  063%=      5-min Rain = 0
KLES 241520Z 18014G19KT 25/16 A2986 RMK A01 T02460161  RH  062%=      5-min Rain = 0
KLES 241525Z 19014G19KT 25/16 A2986 RMK A01 T02460160  RH  062%=      5-min Rain = 0
KLES 241530Z 20015G21KT 25/16 A2986 RMK A01 T02450160  RH  062%=      5-min Rain = 0
KLES 241535Z 19014KT 25/16 A2986 RMK A01 T02490160  RH  061%=      5-min Rain = 0
KLES 241540Z 19013G18KT 25/16 A2986 RMK A01 T02510161  RH  060%=      5-min Rain = 0
KLES 241545Z 19013G18KT 25/16 A2985 RMK A01 T02530160  RH  059%=      5-min Rain = 0
KLES 241550Z 18011G18KT 25/16 A2985 RMK A01 T02520161  RH  060%=      5-min Rain = 0
KLES 241555Z 18012G18KT 26/16 A2985 RMK A01 T02550162  RH  059%=      5-min Rain = 0
KLES 241600Z 16010G17KT 26/16 A2985 RMK A01 T02560163  RH  059%=      5-min Rain = 0
KLES 241605Z 17014G21KT 26/16 A2985 RMK A01 T02610162  RH  057%=      5-min Rain = 0
KLES 241610Z 16013G18KT 26/16 A2984 RMK A01 T02600161  RH  057%=      5-min Rain = 0
KLES 241615Z 17013G18KT 26/16 A2984 RMK A01 T02610162  RH  057%=      5-min Rain = 0
KLES 241620Z 15011KT 26/17 A2984 RMK A01 T02620165  RH  058%=      5-min Rain = 0
KLES 241625Z 16012G18KT 27/16 A2984 RMK A01 T02700163  RH  055%=      5-min Rain = 0
KLES 241630Z 16013KT 27/16 A2983 RMK A01 T02680164  RH  055%=      5-min Rain = 0
KLES 241635Z 16013G18KT 27/17 A2983 RMK A01 T02720165  RH  054%=      5-min Rain = 0
KLES 241640Z 16013G19KT 27/16 A2983 RMK A01 T02730163  RH  053%=      5-min Rain = 0
KLES 241645Z 17013G18KT 27/16 A2983 RMK A01 T02740163  RH  053%=      5-min Rain = 0
KLES 241650Z 16014G20KT 28/16 A2983 RMK A01 T02770164  RH  053%=      5-min Rain = 0
KLES 241655Z 15012G17KT 28/16 A2984 RMK A01 T02760163  RH  053%=      5-min Rain = 0
KLES 241700Z 17013G18KT 28/16 A2984 RMK A01 T02800159  RH  050%=      5-min Rain = 0
KLES 241705Z 18012G18KT 28/16 A2984 RMK A01 T02820160  RH  050%=      5-min Rain = 0
KLES 241710Z 19013KT 29/15 A2984 RMK A01 T02870153  RH  046%=      5-min Rain = 0
KLES 241715Z 17010G17KT 28/15 A2984 RMK A01 T02830151  RH  047%=      5-min Rain = 0
KLES 241720Z 18012G18KT 29/15 A2983 RMK A01 T02910153  RH  045%=      5-min Rain = 0
KLES 241725Z 18012G18KT 29/15 A2983 RMK A01 T02870150  RH  045%=      5-min Rain = 0
KLES 241730Z 16011KT 29/15 A2983 RMK A01 T02890149  RH  044%=      5-min Rain = 0
KLES 241735Z 15011G16KT 29/15 A2983 RMK A01 T02920151  RH  044%=      5-min Rain = 0
KLES 241740Z 18011KT 30/15 A2983 RMK A01 T02960150  RH  043%=      5-min Rain = 0
KLES 241745Z 17010KT 29/15 A2983 RMK A01 T02940149  RH  043%=      5-min Rain = 0
KLES 241750Z 17012KT 30/15 A2983 RMK A01 T03000145  RH  041%=      5-min Rain = 0
KLES 241755Z 18008G13KT 30/14 A2982 RMK A01 T02980139  RH  040%=      5-min Rain = 0
KLES 241800Z 16011G16KT 30/14 A2982 RMK A01 T02990140  RH  040%=      5-min Rain = 0
KLES 241805Z 17012G17KT 30/14 A2982 RMK A01 T03020140  RH  039%=      5-min Rain = 0
KLES 241810Z 18009G17KT 30/14 A2982 RMK A01 T03020143  RH  039%=      5-min Rain = 0
KLES 241815Z 17011KT 30/14 A2982 RMK A01 T03040140  RH  038%=      5-min Rain = 0
KLES 241820Z 19010KT 31/13 A2982 RMK A01 T03060134  RH  036%=      5-min Rain = 0
KLES 241825Z 19009G15KT 31/14 A2981 RMK A01 T03060136  RH  037%=      5-min Rain = 0
KLES 241830Z 19013KT 31/13 A2981 RMK A01 T03080127  RH  034%=      5-min Rain = 0
KLES 241835Z 16009G15KT 31/13 A2981 RMK A01 T03100126  RH  034%=      5-min Rain = 0
KLES 241840Z 15009G14KT 31/12 A2981 RMK A01 T03100121  RH  033%=      5-min Rain = 0
KLES 241845Z 20006G11KT 31/12 A2981 RMK A01 T03100120  RH  032%=      5-min Rain = 0
KLES 241850Z 16006G12KT 31/12 A298 RMK A01 T03080123  RH  033%=      5-min Rain = 0
KLES 241855Z 14008G14KT 31/12 A298 RMK A01 T03110123  RH  033%=      5-min Rain = 0
KLES 241900Z 16010KT 31/12 A298 RMK A01 T03140123  RH  032%=      5-min Rain = 0
KLES 241905Z 18011G16KT 32/12 A298 RMK A01 T03160120  RH  031%=      5-min Rain = 0
KLES 241910Z 16008G14KT 32/12 A2979 RMK A01 T03150115  RH  030%=      5-min Rain = 0
KLES 241915Z 14010KT 32/12 A2979 RMK A01 T03150117  RH  031%=      5-min Rain = 0
KLES 241920Z 13010G17KT 31/11 A2979 RMK A01 T03140113  RH  030%=      5-min Rain = 0
KLES 241925Z 14009KT 32/12 A2978 RMK A01 T03150117  RH  031%=      5-min Rain = 0
KLES 241930Z 14009G15KT 32/12 A2978 RMK A01 T03180118  RH  031%=      5-min Rain = 0
KLES 241935Z 15007G13KT 32/12 A2978 RMK A01 T03210117  RH  030%=      5-min Rain = 0
KLES 241940Z 12008KT 32/12 A2977 RMK A01 T03220117  RH  030%=      5-min Rain = 0
KLES 241945Z 16009G14KT 32/12 A2977 RMK A01 T03220115  RH  029%=      5-min Rain = 0
KLES 241950Z 19008G14KT 33/11 A2977 RMK A01 T03250109  RH  028%=      5-min Rain = 0
KLES 241955Z 19009G14KT 33/11 A2977 RMK A01 T03250106  RH  027%=      5-min Rain = 0
KLES 242000Z 16008G14KT 32/11 A2976 RMK A01 T03230107  RH  027%=      5-min Rain = 0
KLES 242005Z 12007G12KT 32/11 A2976 RMK A01 T03230110  RH  028%=      5-min Rain = 0
KLES 242010Z 13009KT 33/11 A2976 RMK A01 T03270109  RH  027%=      5-min Rain = 0
KLES 242015Z 14010G17KT 33/11 A2976 RMK A01 T03280108  RH  027%=      5-min Rain = 0
KLES 242020Z 19008G16KT 33/09 A2975 RMK A01 T03290094  RH  024%=      5-min Rain = 0
KLES 242025Z 19006G11KT 33/09 A2975 RMK A01 T03330090  RH  023%=      5-min Rain = 0
KLES 242030Z 15007G13KT 34/10 A2975 RMK A01 T03370097  RH  024%=      5-min Rain = 0
KLES 242035Z 15008KT 34/09 A2975 RMK A01 T03400094  RH  023%=      5-min Rain = 0
KLES 242040Z 12006G12KT 33/10 A2974 RMK A01 T03300097  RH  025%=      5-min Rain = 0
KLES 242045Z 17006G12KT 33/10 A2974 RMK A01 T03330095  RH  024%=      5-min Rain = 0
KLES 242050Z 18009G18KT 34/09 A2973 RMK A01 T03390094  RH  023%=      5-min Rain = 0
KLES 242055Z 14009KT 34/10 A2973 RMK A01 T03390097  RH  024%=      5-min Rain = 0
KLES 242100Z 14006G14KT 34/10 A2972 RMK A01 T03350101  RH  025%=      5-min Rain = 0
KLES 242105Z 11006G12KT 33/10 A2971 RMK A01 T03270100  RH  026%=      5-min Rain = 0
KLES 242110Z 05005KT 33/10 A2971 RMK A01 T03280095  RH  025%=      5-min Rain = 0
KLES 242115Z 20011G22KT 33/09 A297 RMK A01 T03290089  RH  024%=      5-min Rain = 0
KLES 242120Z 18013G18KT 34/07 A297 RMK A01 T03370073  RH  020%=      5-min Rain = 0
KLES 242125Z 14006G12KT 34/07 A297 RMK A01 T03400068  RH  019%=      5-min Rain = 0
KLES 242130Z 17005G12KT 34/07 A297 RMK A01 T03380067  RH  019%=      5-min Rain = 0
KLES 242135Z 15009KT 34/07 A2969 RMK A01 T03410067  RH  019%=      5-min Rain = 0
KLES 242140Z 16008G16KT 34/06 A2969 RMK A01 T03410062  RH  018%=      5-min Rain = 0
KLES 242145Z 16009G16KT 34/06 A2969 RMK A01 T03420063  RH  018%=      5-min Rain = 0
KLES 242150Z 18007G14KT 34/06 A2969 RMK A01 T03410060  RH  018%=      5-min Rain = 0
KLES 242155Z 16004KT 33/06 A2968 RMK A01 T03340059  RH  019%=      5-min Rain = 0
KLES 242200Z 18009G17KT 34/06 A2968 RMK A01 T03370056  RH  018%=      5-min Rain = 0
KLES 242205Z 15009G15KT 34/05 A2968 RMK A01 T03370053  RH  017%=      5-min Rain = 0
KLES 242210Z 12007G12KT 33/05 A2967 RMK A01 T03310050  RH  018%=      5-min Rain = 0
KLES 242215Z 17008G13KT 33/05 A2967 RMK A01 T03300050  RH  018%=      5-min Rain = 0
KLES 242220Z 18012G18KT 33/05 A2967 RMK A01 T03290046  RH  017%=      5-min Rain = 0
KLES 242225Z 19010G15KT 33/05 A2967 RMK A01 T03270046  RH  017%=      5-min Rain = 0
KLES 242230Z 21008KT 32/05 A2967 RMK A01 T03240046  RH  018%=      5-min Rain = 0
KLES 242235Z 18007KT 32/05 A2967 RMK A01 T03240045  RH  018%=      5-min Rain = 0
KLES 242240Z 18009KT 32/04 A2967 RMK A01 T03230041  RH  017%=      5-min Rain = 0
KLES 242245Z 17008KT 32/05 A2967 RMK A01 T03220045  RH  018%=      5-min Rain = 0
KLES 242250Z 16011G16KT 32/07 A2966 RMK A01 T03210066  RH  021%=      5-min Rain = 0
KLES 242255Z 15014G20KT 32/09 A2966 RMK A01 T03160088  RH  025%=      5-min Rain = 0
KLES 242300Z 15016G21KT 31/09 A2966 RMK A01 T03120094  RH  027%=      5-min Rain = 0
KLES 242305Z 16014G23KT 31/10 A2966 RMK A01 T03090097  RH  028%=      5-min Rain = 0
KLES 242310Z 20014G20KT 30/11 A2967 RMK A01 T03040110  RH  031%=      5-min Rain = 0
KLES 242315Z 19017G24KT 29/13 A2967 RMK A01 T02850133  RH  041%=      5-min Rain = 0.01
KLES 242320Z 22021G35KT 26/12 A297 RMK A01 T02600123  RH  045%=      5-min Rain = 0.09
KLES 242325Z 19012G29KT 22/10 A2971 RMK A01 T02240103  RH  048%=      5-min Rain = 0.14
KLES 242330Z 11014G24KT 23/11 A2967 RMK A01 T02260106  RH  048%=      5-min Rain = 0.04
KLES 242335Z 16014G20KT 24/11 A2968 RMK A01 T02400107  RH  045%=      5-min Rain = 0
KLES 242340Z 19017G29KT 23/13 A2969 RMK A01 T02310130  RH  055%=      5-min Rain = 0
KLES 242345Z 19024G34KT 22/13 A2968 RMK A01 T02160128  RH  059%=      5-min Rain = 0.04
KLES 242350Z 18018G32KT 20/11 A2969 RMK A01 T02000113  RH  059%=      5-min Rain = 0.02
KLES 242355Z 20013G22KT 21/11 A2972 RMK A01 T02060112  RH  057%=      5-min Rain = 0
KLES 250000Z 21011G25KT 22/11 A2974 RMK A01 T02170108  RH  052%=      5-min Rain = 0
KLES 250005Z 15007G13KT 23/10 A2972 RMK A01 T02270099  RH  046%=      5-min Rain = 0
KLES 250010Z 17007KT 22/12 A2971 RMK A01 T02230115  RH  052%=      5-min Rain = 0
KLES 250015Z 14013G21KT 23/10 A2969 RMK A01 T02250103  RH  048%=      5-min Rain = 0
KLES 250020Z 15015G22KT 23/10 A2968 RMK A01 T02310098  RH  044%=      5-min Rain = 0
KLES 250025Z 14017G35KT 23/10 A2967 RMK A01 T02330096  RH  043%=      5-min Rain = 0
KLES 250030Z 17021G35KT 25/05 A2965 RMK A01 T02530051  RH  028%=      5-min Rain = 0
KLES 250035Z 17015G29KT 27/06 A2963 RMK A01 T02700060  RH  027%=      5-min Rain = 0
KLES 250040Z 14028G39KT 25/08 A2964 RMK A01 T02450082  RH  036%=      5-min Rain = 0
KLES 250045Z 14019G28KT 24/08 A2963 RMK A01 T02380080  RH  038%=      5-min Rain = 0
KLES 250050Z 13019G27KT 25/07 A2963 RMK A01 T02450070  RH  034%=      5-min Rain = 0
KLES 250055Z 13015G24KT 25/08 A2964 RMK A01 T02460077  RH  035%=      5-min Rain = 0
KLES 250100Z 14015G20KT 24/09 A2963 RMK A01 T02380088  RH  040%=      5-min Rain = 0
KLES 250105Z 14013G20KT 24/08 A2963 RMK A01 T02390084  RH  038%=      5-min Rain = 0
KLES 250110Z 12013G19KT 24/08 A2964 RMK A01 T02420083  RH  037%=      5-min Rain = 0
KLES 250115Z 13010KT 24/09 A2965 RMK A01 T02410088  RH  039%=      5-min Rain = 0
KLES 250120Z 14008KT 24/09 A2965 RMK A01 T02400091  RH  040%=      5-min Rain = 0
KLES 250125Z 13009KT 24/09 A2965 RMK A01 T02420087  RH  038%=      5-min Rain = 0
KLES 250130Z 12009KT 25/09 A2965 RMK A01 T02460085  RH  037%=      5-min Rain = 0
KLES 250135Z 12007KT 25/09 A2965 RMK A01 T02460086  RH  037%=      5-min Rain = 0
KLES 250140Z 12007KT 25/09 A2966 RMK A01 T02470086  RH  037%=      5-min Rain = 0
KLES 250145Z 13006KT 25/09 A2967 RMK A01 T02450092  RH  039%=      5-min Rain = 0
KLES 250150Z 12005KT 24/10 A2967 RMK A01 T02430095  RH  040%=      5-min Rain = 0
KLES 250155Z 04008G17KT 24/11 A2969 RMK A01 T02390105  RH  044%=      5-min Rain = 0
KLES 250200Z 06011G18KT 22/12 A297 RMK A01 T02230116  RH  052%=      5-min Rain = 0
KLES 250205Z 05011KT 21/12 A297 RMK A01 T02080120  RH  059%=      5-min Rain = 0
KLES 250210Z 06012G19KT 20/12 A297 RMK A01 T02020121  RH  062%=      5-min Rain = 0
KLES 250215Z 06013G19KT 20/12 A297 RMK A01 T01990121  RH  063%=      5-min Rain = 0
KLES 250220Z 06012G17KT 20/12 A2971 RMK A01 T01970123  RH  065%=      5-min Rain = 0
KLES 250225Z 05010G15KT 20/12 A297 RMK A01 T01960124  RH  066%=      5-min Rain = 0
KLES 250230Z 05008KT 20/12 A297 RMK A01 T01950124  RH  066%=      5-min Rain = 0
KLES 250235Z 05008G15KT 20/13 A297 RMK A01 T01960126  RH  066%=      5-min Rain = 0
KLES 250240Z 06011G16KT 20/13 A297 RMK A01 T01960128  RH  067%=      5-min Rain = 0
KLES 250245Z 06009G15KT 20/13 A297 RMK A01 T01960131  RH  069%=      5-min Rain = 0
KLES 250250Z 06012G18KT 19/13 A297 RMK A01 T01930132  RH  070%=      5-min Rain = 0
KLES 250255Z 06010G15KT 19/13 A297 RMK A01 T01920132  RH  071%=      5-min Rain = 0
KLES 250300Z 05009G15KT 19/13 A2969 RMK A01 T01890134  RH  073%=      5-min Rain = 0
KLES 250305Z 06011G16KT 19/13 A2969 RMK A01 T01870131  RH  073%=      5-min Rain = 0
KLES 250310Z 05009G15KT 19/13 A2969 RMK A01 T01850131  RH  074%=      5-min Rain = 0
KLES 250315Z 05009KT 19/13 A2969 RMK A01 T01850131  RH  074%=      5-min Rain = 0
KLES 250320Z 06009KT 18/13 A2969 RMK A01 T01840130  RH  074%=      5-min Rain = 0
KLES 250325Z 05007KT 18/13 A2969 RMK A01 T01830131  RH  075%=      5-min Rain = 0
KLES 250330Z 05008KT 18/13 A2969 RMK A01 T01810129  RH  075%=      5-min Rain = 0
KLES 250335Z 06009G14KT 18/13 A2969 RMK A01 T01790129  RH  075%=      5-min Rain = 0
KLES 250340Z 06010KT 18/13 A2969 RMK A01 T01790130  RH  076%=      5-min Rain = 0
KLES 250345Z 07009KT 18/13 A297 RMK A01 T01790132  RH  077%=      5-min Rain = 0
KLES 250350Z 07011KT 18/13 A2971 RMK A01 T01790133  RH  077%=      5-min Rain = 0
KLES 250355Z 08011KT 18/13 A2972 RMK A01 T01800133  RH  077%=      5-min Rain = 0
KLES 250400Z 09011G16KT 18/13 A2973 RMK A01 T01820133  RH  076%=      5-min Rain = 0
KLES 250405Z 09011G16KT 18/13 A2974 RMK A01 T01820131  RH  075%=      5-min Rain = 0
KLES 250410Z 10011KT 19/13 A2974 RMK A01 T01860129  RH  072%=      5-min Rain = 0
KLES 250415Z 11011KT 19/13 A2975 RMK A01 T01870126  RH  071%=      5-min Rain = 0
KLES 250420Z 11010KT 19/12 A2976 RMK A01 T01890124  RH  069%=      5-min Rain = 0
KLES 250425Z 11010KT 19/12 A2976 RMK A01 T01900124  RH  068%=      5-min Rain = 0
KLES 250430Z 12010KT 19/12 A2978 RMK A01 T01900124  RH  068%=      5-min Rain = 0
KLES 250435Z 12009KT 19/13 A2978 RMK A01 T01890125  RH  069%=      5-min Rain = 0
KLES 250440Z 12011KT 19/12 A2979 RMK A01 T01890123  RH  068%=      5-min Rain = 0
KLES 250445Z 11010KT 19/12 A2979 RMK A01 T01910123  RH  067%=      5-min Rain = 0
KLES 250450Z 12008KT 19/12 A298 RMK A01 T01910122  RH  067%=      5-min Rain = 0
KLES 250455Z 11012G21KT 19/12 A298 RMK A01 T01910121  RH  066%=      5-min Rain = 0

Page generated in 0.0344 seconds.